• pl
  • eng

Awiacja
NEWS
last updated: 12.09.2019 14:49<\/div>
Dear users,
We would like to inform you that from September 2nd a test form of the GAFOR forecast is available on our webpage. Please send your comments and suggestions to gafor@imgw.pl that will contribute to product development.
Click on the bold red name to decode a message. 06:01 10.04.2020
  • WIND
  • SIGNIFICANT EURO
  • SIGNIFICANT
  • SIGMET
  • AIRMET
  • TAF FC
  • TAF FT
  • METAR GG30
  • METAR GG00


METAR EPBY 100400Z 24004KT CAVOK M01/M03 Q1024=

METAR EPGD 100400Z 27004KT CAVOK 01/M00 Q1023 =

METAR EPKK 100400Z 31007KT 9999 FEW040 06/03 Q1024 =

METAR EPKT 100400Z 29002KT 9999 MIFG NSC 02/01 Q1024 =

METAR EPLB 100400Z 32006KT CAVOK 04/02 Q1022 =

METAR EPLL 100400Z 25003KT CAVOK 00/M01 Q1024 =

METAR EPMO 100400Z 27003KT 9999 PRFG NSC 00/00 Q1024 =

METAR EPPO 100400Z 24003KT CAVOK M01/M03 Q1025 =

METAR EPRA 100400Z NIL=

METAR EPRZ 100400Z 33011KT 9999 BKN040 08/M00 Q1022 =

METAR EPSC 100400Z 17002KT 9999 MIFG NSC M01/M01 Q1026 =

METAR EPSY 100400Z NIL=

METAR EPWA 100400Z 30004KT CAVOK 03/02 Q1024 NOSIG=

METAR EPWR 100400Z 29003KT CAVOK 02/01 Q1026 =

METAR EPZG 100400Z 22002KT CAVOK M01/M01 Q1026 =
Awiacja.imgw.pl jest pogodowym serwisem informacyjnym
Instytutu Meteorologii i Gospodarki Wodnej Państwowego Instytutu Badawczego.
Copyright IMGW PIB 2009-2019© Wszelkie prawa zastrzeżone.